createdAt,value
2019-01-12T00:01:22.043Z,1.34
2019-01-12T00:03:52.832Z,1.30
2019-01-12T00:06:23.605Z,1.41
2019-01-12T00:08:54.477Z,1.35
2019-01-12T00:11:25.250Z,1.39
2019-01-12T00:13:56.132Z,1.38
2019-01-12T00:16:28.178Z,1.43
2019-01-12T00:18:59.272Z,1.35
2019-01-12T00:21:30.109Z,1.45
2019-01-12T00:24:00.910Z,1.42
2019-01-12T00:26:31.743Z,1.41
2019-01-12T00:29:02.530Z,1.44
2019-01-12T00:31:33.316Z,1.43
2019-01-12T00:34:04.410Z,1.46
2019-01-12T00:36:35.409Z,1.37
2019-01-12T00:39:08.193Z,1.40
2019-01-12T00:41:38.966Z,1.54
2019-01-12T00:44:10.085Z,1.51
2019-01-12T00:46:40.866Z,1.43
2019-01-12T00:49:11.886Z,1.48
2019-01-12T00:51:42.659Z,1.48
2019-01-12T00:54:13.675Z,1.48
2019-01-12T00:56:44.798Z,1.49
2019-01-12T00:59:15.665Z,1.51
2019-01-12T01:01:46.770Z,1.49
2019-01-12T01:04:17.964Z,1.43
2019-01-12T01:06:48.732Z,1.55
2019-01-12T01:09:19.749Z,1.47
2019-01-12T01:11:50.820Z,1.52
2019-01-12T01:14:21.622Z,1.59
2019-01-12T01:16:52.489Z,1.60
2019-01-12T01:19:23.279Z,1.56
2019-01-12T01:21:54.298Z,1.64
2019-01-12T01:24:25.350Z,1.46
2019-01-12T01:26:56.429Z,1.56
2019-01-12T01:29:28.257Z,1.55
2019-01-12T01:31:59.037Z,1.49
2019-01-12T01:34:30.142Z,1.49
2019-01-12T01:37:00.936Z,1.58
2019-01-12T01:39:32.026Z,1.53
2019-01-12T01:42:02.877Z,1.50
2019-01-12T01:44:33.877Z,1.43
2019-01-12T01:47:05.053Z,1.60
2019-01-12T01:49:35.820Z,1.48
2019-01-12T01:52:06.696Z,1.50
2019-01-12T01:54:37.722Z,1.60
2019-01-12T01:57:08.558Z,1.65
2019-01-12T01:59:39.333Z,1.66
2019-01-12T02:02:11.030Z,1.66
2019-01-12T02:04:41.804Z,1.64
2019-01-12T02:07:12.639Z,1.72
2019-01-12T02:09:43.404Z,1.76
2019-01-12T02:12:14.236Z,1.75
2019-01-12T02:14:45.340Z,1.81
2019-01-12T02:17:16.271Z,1.77
2019-01-12T02:19:47.114Z,1.76
2019-01-12T02:22:18.182Z,1.67
2019-01-12T02:24:48.976Z,1.70
2019-01-12T02:27:19.937Z,1.74
2019-01-12T02:29:50.702Z,1.68
2019-01-12T02:32:21.468Z,1.73
2019-01-12T02:34:52.232Z,1.73
2019-01-12T02:37:23.369Z,1.74
2019-01-12T02:39:54.143Z,1.77
2019-01-12T02:42:24.899Z,1.74
2019-01-12T02:44:55.676Z,1.76
2019-01-12T02:47:26.521Z,1.75
2019-01-12T02:49:57.285Z,1.79
2019-01-12T02:52:28.127Z,1.79
2019-01-12T02:54:59.380Z,1.84
2019-01-12T02:57:30.222Z,1.90
2019-01-12T03:00:01.008Z,1.95
2019-01-12T03:02:32.151Z,1.93
2019-01-12T03:05:02.923Z,1.88
2019-01-12T03:07:33.911Z,1.86
2019-01-12T03:10:05.872Z,1.91
2019-01-12T03:12:36.916Z,1.88
2019-01-12T03:15:09.762Z,1.87
2019-01-12T03:17:40.749Z,1.80
2019-01-12T03:20:13.490Z,1.79
2019-01-12T03:22:44.928Z,1.87
2019-01-12T03:25:18.608Z,1.86
2019-01-12T03:27:48.895Z,1.87
2019-01-12T03:30:20.081Z,1.84
2019-01-12T03:32:50.873Z,1.84
2019-01-12T03:35:22.036Z,1.87
2019-01-12T03:37:53.296Z,1.82
2019-01-12T03:40:24.074Z,1.94
2019-01-12T03:42:56.282Z,1.77
2019-01-12T03:45:27.451Z,1.78
2019-01-12T03:47:58.474Z,1.84
2019-01-12T03:50:29.694Z,1.89
2019-01-12T03:53:01.864Z,1.87
2019-01-12T03:55:32.940Z,1.89
2019-01-12T03:58:04.084Z,1.96
2019-01-12T04:00:35.425Z,1.95
2019-01-12T04:03:06.525Z,1.96
2019-01-12T04:05:37.298Z,1.96
2019-01-12T04:08:08.633Z,2.03
2019-01-12T04:10:39.422Z,2.02
2019-01-12T04:13:10.182Z,2.01
2019-01-12T04:15:40.946Z,2.01
2019-01-12T04:18:12.029Z,2.05
2019-01-12T04:20:42.803Z,1.95
2019-01-12T04:23:13.736Z,2.00
2019-01-12T04:25:44.587Z,1.94
2019-01-12T04:28:15.424Z,1.95
2019-01-12T04:30:46.457Z,1.96
2019-01-12T04:33:17.447Z,1.94
2019-01-12T04:35:48.225Z,1.99
2019-01-12T04:38:19.054Z,1.96
2019-01-12T04:40:50.112Z,1.94
2019-01-12T04:43:20.865Z,1.99
2019-01-12T04:45:51.643Z,1.97
2019-01-12T04:48:22.638Z,1.96
2019-01-12T04:50:53.404Z,1.95
2019-01-12T04:53:24.178Z,1.97
2019-01-12T04:55:55.161Z,1.92
2019-01-12T04:58:25.923Z,1.89
2019-01-12T05:00:56.694Z,1.84
2019-01-12T05:03:27.458Z,1.90
2019-01-12T05:05:58.473Z,1.84
2019-01-12T05:08:29.282Z,1.94
2019-01-12T05:11:00.047Z,1.92
2019-01-12T05:13:31.073Z,1.91
2019-01-12T05:16:01.837Z,1.94
2019-01-12T05:18:32.606Z,1.99
2019-01-12T05:21:03.373Z,2.02
2019-01-12T05:23:34.203Z,1.95
2019-01-12T05:26:05.952Z,1.95
2019-01-12T05:28:36.942Z,2.02
2019-01-12T05:31:07.705Z,2.01
2019-01-12T05:33:38.463Z,2.06
2019-01-12T05:36:09.316Z,2.08
2019-01-12T05:38:40.143Z,2.10
2019-01-12T05:41:10.913Z,2.18
2019-01-12T05:43:41.718Z,2.20
2019-01-12T05:46:12.792Z,2.19
2019-01-12T05:48:43.623Z,2.14
2019-01-12T05:51:14.609Z,2.15
2019-01-12T05:53:45.606Z,2.19
2019-01-12T05:56:16.612Z,2.14
2019-01-12T05:58:47.827Z,2.17
2019-01-12T06:01:18.597Z,2.18
2019-01-12T06:03:49.347Z,2.13
2019-01-12T06:06:20.118Z,2.18
2019-01-12T06:08:50.943Z,2.17
2019-01-12T06:11:21.948Z,2.18
2019-01-12T06:13:52.975Z,2.20
2019-01-12T06:16:23.819Z,2.18
2019-01-12T06:18:54.939Z,2.24
2019-01-12T06:21:25.948Z,2.24
2019-01-12T06:23:56.708Z,2.23
2019-01-12T06:26:27.540Z,2.24
2019-01-12T06:28:58.317Z,2.25
2019-01-12T06:31:29.077Z,2.30
2019-01-12T06:34:00.069Z,2.27
2019-01-12T06:36:30.858Z,2.29
2019-01-12T06:39:02.880Z,2.23
2019-01-12T06:41:34.062Z,2.23
2019-01-12T06:44:05.347Z,2.24
2019-01-12T06:46:36.186Z,2.24
2019-01-12T06:49:06.949Z,2.16
2019-01-12T06:51:37.796Z,2.25
2019-01-12T06:54:08.926Z,2.18
2019-01-12T06:56:39.931Z,2.20
2019-01-12T06:59:11.227Z,2.25
2019-01-12T07:01:42.300Z,2.20
2019-01-12T07:04:13.360Z,2.28
2019-01-12T07:06:44.441Z,2.25
2019-01-12T07:09:15.452Z,2.20
2019-01-12T07:11:46.235Z,2.21
2019-01-12T07:14:16.994Z,2.17
2019-01-12T07:16:47.828Z,2.21
2019-01-12T07:19:18.593Z,2.24
2019-01-12T07:21:49.363Z,2.22
2019-01-12T07:24:20.349Z,2.21
2019-01-12T07:26:52.129Z,2.23
2019-01-12T07:29:22.925Z,2.21
2019-01-12T07:31:53.920Z,2.26
2019-01-12T07:34:25.681Z,2.30
2019-01-12T07:36:56.443Z,2.28
2019-01-12T07:39:27.429Z,2.26
2019-01-12T07:41:58.201Z,2.32
2019-01-12T07:44:29.598Z,2.27
2019-01-12T07:47:00.591Z,2.30
2019-01-12T07:49:31.653Z,2.38
2019-01-12T07:52:02.510Z,2.40
2019-01-12T07:54:33.271Z,2.36
2019-01-12T07:57:04.124Z,2.32
2019-01-12T07:59:34.871Z,2.36
2019-01-12T08:02:05.767Z,2.44
2019-01-12T08:04:37.128Z,2.51
2019-01-12T08:07:07.975Z,2.60
2019-01-12T08:09:38.963Z,2.65
2019-01-12T08:12:10.018Z,2.70
2019-01-12T08:14:41.001Z,2.67
2019-01-12T08:17:11.844Z,2.65
2019-01-12T08:19:42.871Z,2.71
2019-01-12T08:22:13.713Z,2.75
2019-01-12T08:24:44.539Z,2.72
2019-01-12T08:27:15.312Z,2.70
2019-01-12T08:29:46.132Z,2.75
2019-01-12T08:32:16.980Z,2.78
2019-01-12T08:34:47.984Z,3.04
2019-01-12T08:37:18.957Z,3.09
2019-01-12T08:39:49.717Z,3.05
2019-01-12T08:42:20.480Z,2.99
2019-01-12T08:44:51.358Z,3.01
2019-01-12T08:47:22.433Z,3.06
2019-01-12T08:49:53.269Z,3.04
2019-01-12T08:52:24.606Z,3.03
2019-01-12T08:54:55.374Z,3.04
2019-01-12T08:57:26.568Z,2.97
2019-01-12T08:59:57.581Z,3.08
2019-01-12T09:02:28.413Z,3.12
2019-01-12T09:04:59.162Z,3.11
2019-01-12T09:07:30.204Z,3.05
2019-01-12T09:10:01.067Z,3.08
2019-01-12T09:12:31.991Z,3.12
2019-01-12T09:15:03.044Z,3.10
2019-01-12T09:17:34.160Z,3.11
2019-01-12T09:20:06.425Z,3.08
2019-01-12T09:22:37.611Z,3.12
2019-01-12T09:25:09.539Z,3.16
2019-01-12T09:27:40.623Z,3.19
2019-01-12T09:30:14.207Z,3.14
2019-01-12T09:32:45.061Z,3.15
2019-01-12T09:35:16.078Z,3.13
2019-01-12T09:37:46.934Z,3.14
2019-01-12T09:40:19.246Z,3.12
2019-01-12T09:42:50.195Z,3.20
2019-01-12T09:45:22.078Z,3.24
2019-01-12T09:47:53.076Z,3.25
2019-01-12T09:50:23.924Z,3.26
2019-01-12T09:52:55.046Z,3.35
2019-01-12T09:55:26.339Z,3.28
2019-01-12T09:57:57.147Z,3.32
2019-01-12T10:00:28.179Z,3.29
2019-01-12T10:02:59.256Z,3.26
2019-01-12T10:05:30.059Z,3.32
2019-01-12T10:08:01.099Z,3.40
2019-01-12T10:10:31.920Z,3.39
2019-01-12T10:13:02.729Z,3.47
2019-01-12T10:15:33.737Z,3.41
2019-01-12T10:18:04.898Z,3.40
2019-01-12T10:20:35.657Z,3.40
2019-01-12T10:23:06.592Z,3.41
2019-01-12T10:25:37.646Z,3.45
2019-01-12T10:28:09.052Z,3.38
2019-01-12T10:30:39.816Z,3.42
2019-01-12T10:33:10.685Z,3.42
2019-01-12T10:35:41.443Z,3.34
2019-01-12T10:38:12.678Z,3.35
2019-01-12T10:40:44.028Z,3.36
2019-01-12T10:43:14.811Z,3.32
2019-01-12T10:45:45.907Z,3.36
2019-01-12T10:48:16.672Z,3.34
2019-01-12T10:50:47.446Z,3.43
2019-01-12T10:53:18.578Z,3.48
2019-01-12T10:55:49.636Z,3.46
2019-01-12T10:58:20.739Z,3.54
2019-01-12T11:00:51.732Z,3.57
2019-01-12T11:03:22.945Z,3.56
2019-01-12T11:05:54.029Z,3.55
2019-01-12T11:08:25.016Z,3.54
2019-01-12T11:10:57.427Z,3.57
2019-01-12T11:13:28.327Z,3.58
2019-01-12T11:15:59.143Z,3.69
2019-01-12T11:18:30.206Z,3.75
2019-01-12T11:21:02.464Z,3.83
2019-01-12T11:23:33.521Z,3.77
2019-01-12T11:26:04.737Z,3.68
2019-01-12T11:28:35.861Z,3.68
2019-01-12T11:31:07.026Z,3.70
2019-01-12T11:33:37.778Z,3.71
2019-01-12T11:36:08.883Z,3.72
2019-01-12T11:38:39.630Z,3.73
2019-01-12T11:41:10.664Z,3.64
2019-01-12T11:43:41.419Z,3.64
2019-01-12T11:46:12.192Z,3.57
2019-01-12T11:48:43.661Z,3.58
2019-01-12T11:51:14.849Z,3.57
2019-01-12T11:53:45.864Z,3.58
2019-01-12T11:56:16.625Z,3.52
2019-01-12T11:58:47.615Z,3.58
2019-01-12T12:01:18.499Z,3.55
2019-01-12T12:03:49.485Z,3.55
2019-01-12T12:06:20.715Z,3.58
2019-01-12T12:08:51.487Z,3.55
2019-01-12T12:11:22.261Z,3.52
2019-01-12T12:13:53.263Z,3.44
2019-01-12T12:16:24.048Z,3.42
2019-01-12T12:18:55.113Z,3.42
2019-01-12T12:21:27.627Z,3.38
2019-01-12T12:23:58.930Z,3.40
2019-01-12T12:26:29.868Z,3.44
2019-01-12T12:29:00.821Z,3.42
2019-01-12T12:31:31.847Z,3.48
2019-01-12T12:34:02.829Z,3.42
2019-01-12T12:36:33.609Z,3.33
2019-01-12T12:39:06.887Z,3.36
2019-01-12T12:41:37.733Z,3.43
2019-01-12T12:44:08.720Z,3.48
2019-01-12T12:46:39.500Z,3.52
2019-01-12T12:49:11.460Z,3.56
2019-01-12T12:51:42.475Z,3.52
2019-01-12T12:54:13.731Z,3.55
2019-01-12T12:56:44.591Z,3.49
2019-01-12T12:59:16.022Z,3.46
2019-01-12T13:01:46.951Z,3.43
2019-01-12T13:04:17.734Z,3.38
2019-01-12T13:06:48.740Z,3.44
2019-01-12T13:09:19.845Z,3.47
2019-01-12T13:11:50.855Z,3.37
2019-01-12T13:14:21.764Z,3.43
2019-01-12T13:16:52.562Z,3.41
2019-01-12T13:19:23.384Z,3.44
2019-01-12T13:21:54.715Z,3.42
2019-01-12T13:24:25.717Z,3.50
2019-01-12T13:26:56.486Z,3.50
2019-01-12T13:29:27.890Z,3.48
2019-01-12T13:31:58.629Z,3.47
2019-01-12T13:34:29.679Z,3.51
2019-01-12T13:37:01.008Z,3.54
2019-01-12T13:39:32.200Z,3.53
2019-01-12T13:42:03.190Z,3.50
2019-01-12T13:44:34.025Z,3.51
2019-01-12T13:47:04.878Z,3.55
2019-01-12T13:49:35.637Z,3.52
2019-01-12T13:52:06.487Z,3.54
2019-01-12T13:54:37.490Z,3.56
2019-01-12T13:57:08.260Z,3.61
2019-01-12T13:59:39.025Z,3.60
2019-01-12T14:02:10.034Z,3.60
2019-01-12T14:04:40.939Z,3.61
2019-01-12T14:07:11.933Z,3.59
2019-01-12T14:09:42.694Z,3.60
2019-01-12T14:12:13.466Z,3.66
2019-01-12T14:14:44.225Z,3.68
2019-01-12T14:17:15.080Z,3.64
2019-01-12T14:19:45.915Z,3.62
2019-01-12T14:22:17.156Z,3.64
2019-01-12T14:24:47.922Z,3.68
2019-01-12T14:27:18.956Z,3.71
2019-01-12T14:29:50.678Z,3.69
2019-01-12T14:32:21.474Z,3.68
2019-01-12T14:34:52.472Z,3.64
2019-01-12T14:37:23.478Z,3.69
2019-01-12T14:39:54.233Z,3.65
2019-01-12T14:42:25.003Z,3.69
2019-01-12T14:44:55.988Z,3.69
2019-01-12T14:47:27.025Z,3.70
2019-01-12T14:49:57.868Z,3.71
2019-01-12T14:52:28.787Z,3.73
2019-01-12T14:55:00.099Z,3.70
2019-01-12T14:57:30.931Z,3.76
2019-01-12T15:00:02.104Z,3.70
2019-01-12T15:02:33.905Z,3.68
2019-01-12T15:05:05.726Z,3.71
2019-01-12T15:07:36.793Z,3.71
2019-01-12T15:10:09.069Z,3.74
2019-01-12T15:12:39.990Z,3.76
2019-01-12T15:15:11.522Z,3.78
2019-01-12T15:17:42.288Z,3.71
2019-01-12T15:20:18.962Z,3.80
2019-01-12T15:22:49.881Z,3.78
2019-01-12T15:25:21.125Z,3.80
2019-01-12T15:27:53.220Z,3.81
2019-01-12T15:30:31.500Z,3.84
2019-01-12T15:33:04.874Z,3.88
2019-01-12T15:35:36.839Z,3.79
2019-01-12T15:38:07.916Z,3.75
2019-01-12T15:40:38.746Z,3.75
2019-01-12T15:43:09.744Z,3.79
2019-01-12T15:45:40.510Z,3.80
2019-01-12T15:48:11.435Z,3.75
2019-01-12T15:50:42.425Z,3.77
2019-01-12T15:53:13.340Z,3.82
2019-01-12T15:55:44.169Z,3.83
2019-01-12T15:58:16.353Z,3.89
2019-01-12T16:00:47.252Z,3.89
2019-01-12T16:03:18.363Z,3.84
2019-01-12T16:05:49.495Z,3.91
2019-01-12T16:08:20.263Z,3.87
2019-01-12T16:10:51.341Z,3.86
2019-01-12T16:13:22.191Z,3.89
2019-01-12T16:15:53.055Z,3.89
2019-01-12T16:18:24.174Z,3.99
2019-01-12T16:20:54.925Z,4.01
2019-01-12T16:23:25.770Z,4.15
2019-01-12T16:25:56.762Z,4.02
2019-01-12T16:28:27.780Z,4.02
2019-01-12T16:30:58.579Z,4.00
2019-01-12T16:33:29.334Z,3.96
2019-01-12T16:36:00.454Z,4.00
2019-01-12T16:38:31.228Z,4.02
2019-01-12T16:41:02.623Z,4.00
2019-01-12T16:43:33.411Z,3.92
2019-01-12T16:46:04.300Z,4.01
2019-01-12T16:48:35.318Z,4.02
2019-01-12T16:51:06.081Z,4.05
2019-01-12T16:53:36.860Z,4.05
2019-01-12T16:56:07.628Z,4.04
2019-01-12T16:58:38.538Z,4.04
2019-01-12T17:01:09.767Z,4.01
2019-01-12T17:03:40.797Z,4.05
2019-01-12T17:06:11.707Z,4.01
2019-01-12T17:08:42.772Z,4.02
2019-01-12T17:11:13.548Z,4.27
2019-01-12T17:13:44.311Z,4.11
2019-01-12T17:16:15.359Z,4.11
2019-01-12T17:18:48.622Z,4.09
2019-01-12T17:21:19.446Z,4.13
2019-01-12T17:23:50.316Z,4.06
2019-01-12T17:26:22.037Z,4.07
2019-01-12T17:28:52.934Z,3.99
2019-01-12T17:31:24.018Z,4.00
2019-01-12T17:33:55.058Z,3.96
2019-01-12T17:36:25.950Z,3.96
2019-01-12T17:38:56.710Z,4.00
2019-01-12T17:41:27.603Z,3.99
2019-01-12T17:43:59.333Z,4.00
2019-01-12T17:46:30.346Z,4.00
2019-01-12T17:49:01.212Z,4.05
2019-01-12T17:51:32.195Z,3.97
2019-01-12T17:54:03.829Z,4.00
2019-01-12T17:56:35.609Z,3.93
2019-01-12T17:59:06.767Z,3.95
2019-01-12T18:01:37.587Z,3.95
2019-01-12T18:04:08.513Z,3.96
2019-01-12T18:06:39.482Z,3.95
2019-01-12T18:09:10.729Z,3.95
2019-01-12T18:11:41.732Z,3.95
2019-01-12T18:14:12.743Z,3.97
2019-01-12T18:16:43.727Z,3.84
2019-01-12T18:19:14.864Z,3.89
2019-01-12T18:21:45.990Z,3.89
2019-01-12T18:27:49.894Z,3.91
2019-01-12T18:30:21.863Z,3.91
2019-01-12T18:32:52.811Z,3.92
2019-01-12T18:35:24.054Z,3.88
2019-01-12T18:37:54.798Z,3.88
2019-01-12T18:40:25.814Z,3.89
2019-01-12T18:42:57.084Z,3.81
2019-01-12T18:45:28.061Z,3.90
2019-01-12T18:47:59.042Z,3.85
2019-01-12T18:50:30.143Z,3.86
2019-01-12T18:53:01.299Z,3.90
2019-01-12T18:55:32.250Z,3.91
2019-01-12T18:58:03.183Z,3.89
2019-01-12T19:00:34.376Z,3.93
2019-01-12T19:03:05.514Z,3.86
2019-01-12T19:05:36.643Z,3.84
2019-01-12T19:08:07.602Z,3.88
2019-01-12T19:10:38.673Z,3.85
2019-01-12T19:13:09.499Z,3.85
2019-01-12T19:15:40.335Z,3.81
2019-01-12T19:18:11.419Z,3.81
2019-01-12T19:20:42.407Z,3.78
2019-01-12T19:23:13.270Z,3.78
2019-01-12T19:25:44.035Z,3.79
2019-01-12T19:28:14.773Z,3.80
2019-01-12T19:30:45.760Z,3.79
2019-01-12T19:33:16.748Z,3.78
2019-01-12T19:35:47.571Z,3.82
2019-01-12T19:38:18.726Z,3.80
2019-01-12T19:40:49.730Z,3.77
2019-01-12T19:43:20.707Z,3.81
2019-01-12T19:45:51.789Z,3.78
2019-01-12T19:48:22.799Z,3.76
2019-01-12T19:50:53.836Z,3.73
2019-01-12T19:53:24.581Z,3.77
2019-01-12T19:55:55.327Z,3.75
2019-01-12T19:58:26.377Z,3.74
2019-01-12T20:00:57.457Z,3.76
2019-01-12T20:03:28.436Z,3.75
2019-01-12T20:05:59.255Z,3.77
2019-01-12T20:08:30.263Z,3.77
2019-01-12T20:11:01.317Z,3.77
2019-01-12T20:13:32.122Z,3.78
2019-01-12T20:16:03.041Z,3.78
2019-01-12T20:18:33.781Z,3.78
2019-01-12T20:21:04.549Z,3.78
2019-01-12T20:23:35.306Z,3.79
2019-01-12T20:26:06.213Z,3.68
2019-01-12T20:28:37.332Z,3.76
2019-01-12T20:31:47.235Z,3.76
2019-01-12T20:34:27.023Z,3.76
2019-01-12T20:37:40.771Z,3.79
2019-01-12T20:40:39.545Z,3.84
2019-01-12T20:43:42.836Z,3.81
2019-01-12T20:46:32.819Z,3.82
2019-01-12T20:49:31.584Z,3.84
2019-01-12T20:52:46.116Z,3.87
2019-01-12T20:56:02.826Z,3.86
2019-01-12T20:59:08.332Z,3.87
2019-01-12T21:02:15.195Z,3.88
2019-01-12T21:05:05.417Z,3.91
2019-01-12T21:08:23.432Z,3.94
2019-01-12T21:11:26.034Z,4.00
2019-01-12T21:14:08.333Z,3.96
2019-01-12T21:16:46.299Z,4.02
2019-01-12T21:19:17.040Z,4.02
2019-01-12T21:21:47.790Z,4.03
2019-01-12T21:24:18.768Z,4.02
2019-01-12T21:26:49.598Z,4.01
2019-01-12T21:29:20.326Z,4.04
2019-01-12T21:31:51.618Z,4.05
2019-01-12T21:34:22.498Z,4.03
2019-01-12T21:36:53.316Z,4.05
2019-01-12T21:39:24.048Z,4.02
2019-01-12T21:41:55.095Z,4.11
2019-01-12T21:44:26.149Z,4.15
2019-01-12T21:46:56.965Z,4.13
2019-01-12T21:49:28.119Z,4.12
2019-01-12T21:51:59.016Z,4.08
2019-01-12T21:54:30.220Z,4.13
2019-01-12T21:57:01.176Z,4.13
2019-01-12T21:59:31.930Z,4.11
2019-01-12T22:02:02.888Z,4.19
2019-01-12T22:04:33.878Z,4.18
2019-01-12T22:07:04.791Z,4.17
2019-01-12T22:09:35.820Z,4.28
2019-01-12T22:12:06.791Z,4.25
2019-01-12T22:14:37.541Z,4.28
2019-01-12T22:17:08.530Z,4.35
2019-01-12T22:19:39.265Z,4.28
2019-01-12T22:22:10.025Z,4.30
2019-01-12T22:24:41.964Z,4.34
2019-01-12T22:27:13.068Z,4.40
2019-01-12T22:29:49.723Z,4.35
2019-01-12T22:32:16.357Z,4.30
2019-01-12T22:34:47.099Z,4.40
2019-01-12T22:37:17.860Z,4.37
2019-01-12T22:39:48.832Z,4.37
2019-01-12T22:42:19.709Z,4.31
2019-01-12T22:44:50.717Z,4.36
2019-01-12T22:47:21.540Z,4.39
2019-01-12T22:49:52.282Z,4.37
2019-01-12T22:52:23.035Z,4.41
2019-01-12T22:54:53.841Z,4.42
2019-01-12T22:57:24.592Z,4.43
2019-01-12T22:59:57.085Z,4.45
2019-01-12T23:02:28.028Z,4.43
2019-01-12T23:04:58.765Z,4.42
2019-01-12T23:07:29.590Z,4.44
2019-01-12T23:10:00.433Z,4.45
2019-01-12T23:12:31.474Z,4.45
2019-01-12T23:15:02.213Z,4.44
2019-01-12T23:17:34.794Z,4.43
2019-01-12T23:20:06.321Z,4.50
2019-01-12T23:22:37.081Z,4.48
2019-01-12T23:25:07.921Z,4.41
2019-01-12T23:27:38.852Z,4.48
2019-01-12T23:30:11.242Z,4.53
2019-01-12T23:32:42.152Z,4.51
2019-01-12T23:35:13.154Z,4.49
2019-01-12T23:37:44.006Z,4.53
2019-01-12T23:40:14.990Z,4.54
2019-01-12T23:42:46.037Z,4.55
2019-01-12T23:45:17.082Z,4.59
2019-01-12T23:47:47.839Z,4.60
2019-01-12T23:50:18.589Z,4.59
2019-01-12T23:52:49.355Z,4.59
2019-01-12T23:55:20.171Z,4.61
2019-01-12T23:57:51.170Z,4.71
